Time;durP1;ratioP1;P1;durP2;ratioP2;P2;SDS_P1;SDS_P2;PMS_P1;PMS_P2;Temp;Humidity;BMP_temperature;BMP_pressure;BME280_temperature;BME280_humidity;BME280_pressure;Samples;Min_cycle;Max_cycle;Signal;HPM_P1;HPM_P2
2022/07/04 00:00:06;;;;;;;1.70;1.30;;;19.30;99.90;;;;;;4994809;28;20197;-67
2022/07/04 00:02:32;;;;;;;1.70;1.20;;;19.20;99.90;;;;;;4994602;28;20193;-67
2022/07/04 00:04:59;;;;;;;2.27;1.30;;;19.10;99.90;;;;;;4994199;28;20219;-67
2022/07/04 00:07:26;;;;;;;2.53;1.30;;;19.00;99.90;;;;;;5001969;28;20248;-67
2022/07/04 00:09:53;;;;;;;3.07;1.40;;;19.10;99.90;;;;;;4994807;28;20200;-66
2022/07/04 00:12:20;;;;;;;1.50;1.37;;;19.00;99.90;;;;;;4994451;28;20201;-67
2022/07/04 00:14:46;;;;;;;1.40;1.23;;;19.10;99.90;;;;;;4993029;28;20200;-66
2022/07/04 00:17:13;;;;;;;1.80;1.20;;;19.10;99.90;;;;;;4994596;28;20659;-67
2022/07/04 00:19:40;;;;;;;2.23;1.40;;;19.00;99.90;;;;;;4994472;28;20197;-69
2022/07/04 00:22:07;;;;;;;2.63;1.57;;;18.90;99.90;;;;;;4993534;28;20671;-69
2022/07/04 00:24:33;;;;;;;3.47;1.30;;;18.80;99.90;;;;;;5006872;28;20199;-69
2022/07/04 00:27:00;;;;;;;2.27;1.70;;;18.90;99.90;;;;;;5000114;28;20227;-69
2022/07/04 00:29:26;;;;;;;6.43;1.93;;;18.90;99.90;;;;;;4993898;28;20201;-69
2022/07/04 00:31:53;;;;;;;3.47;1.60;;;18.80;99.90;;;;;;5002704;28;20188;-69
2022/07/04 00:34:20;;;;;;;2.00;1.37;;;18.70;99.90;;;;;;4998452;28;20193;-69
2022/07/04 00:36:47;;;;;;;3.77;1.30;;;18.80;99.90;;;;;;4992972;28;20225;-69
2022/07/04 00:39:14;;;;;;;2.30;1.40;;;18.80;99.90;;;;;;4993438;28;20297;-70
2022/07/04 00:41:40;;;;;;;3.97;1.60;;;18.70;99.90;;;;;;5000856;28;20196;-69
2022/07/04 00:44:10;;;;;;;2.73;1.70;;;18.70;99.90;;;;;;4992943;28;20204;-69
2022/07/04 00:46:40;;;;;;;3.33;1.80;;;18.60;99.90;;;;;;4992149;28;20586;-69
2022/07/04 00:49:07;;;;;;;2.77;1.60;;;18.30;99.90;;;;;;5006992;28;20232;-66
2022/07/04 00:51:34;;;;;;;3.20;1.60;;;18.40;99.90;;;;;;4992371;28;20203;-67
2022/07/04 00:54:01;;;;;;;3.63;1.70;;;18.50;99.90;;;;;;4993474;28;20193;-67
2022/07/04 00:56:27;;;;;;;3.97;1.70;;;18.40;99.90;;;;;;4993584;28;20216;-67
2022/07/04 00:58:54;;;;;;;3.53;1.77;;;18.40;99.90;;;;;;4997394;28;20688;-66
2022/07/04 01:01:21;;;;;;;2.30;1.67;;;18.40;99.90;;;;;;4992312;28;20193;-67
2022/07/04 01:03:49;;;;;;;2.30;1.60;;;18.40;99.90;;;;;;4993583;28;20465;-67
2022/07/04 01:06:18;;;;;;;3.87;1.70;;;18.30;99.90;;;;;;4991953;28;20592;-69
2022/07/04 01:08:45;;;;;;;3.57;1.80;;;18.30;99.90;;;;;;4994080;28;20231;-69
2022/07/04 01:11:13;;;;;;;2.30;1.57;;;18.20;99.90;;;;;;4992345;28;20694;-68
2022/07/04 01:13:41;;;;;;;2.57;1.73;;;18.10;99.90;;;;;;5005263;28;20658;-69
2022/07/04 01:16:09;;;;;;;1.73;1.63;;;17.90;99.90;;;;;;4998353;28;20220;-69
2022/07/04 01:18:36;;;;;;;2.90;1.87;;;17.80;99.90;;;;;;4992205;28;20204;-70
2022/07/04 01:21:03;;;;;;;3.53;2.03;;;17.80;99.90;;;;;;4992165;28;20196;-69
2022/07/04 01:23:30;;;;;;;2.53;1.70;;;17.70;99.90;;;;;;4992186;28;20219;-69
2022/07/04 01:25:58;;;;;;;1.90;1.67;;;17.70;99.90;;;;;;4999311;28;20225;-69
2022/07/04 01:28:25;;;;;;;2.80;1.80;;;17.70;99.90;;;;;;4998230;28;20218;-69
2022/07/04 01:30:52;;;;;;;2.50;1.93;;;17.60;99.90;;;;;;4994841;28;20455;-69
2022/07/04 01:33:19;;;;;;;2.27;1.73;;;17.50;99.90;;;;;;4995855;28;20197;-69
2022/07/04 01:35:46;;;;;;;3.33;1.80;;;17.40;99.90;;;;;;4990825;28;20217;-70
2022/07/04 01:38:13;;;;;;;4.17;1.77;;;17.30;99.90;;;;;;4991414;28;20212;-66
2022/07/04 01:40:40;;;;;;;4.80;2.00;;;17.30;99.90;;;;;;4998475;28;20200;-67
2022/07/04 01:43:07;;;;;;;4.37;2.10;;;17.20;99.90;;;;;;5007685;28;20200;-67
2022/07/04 01:45:37;;;;;;;2.87;2.00;;;17.10;99.90;;;;;;5011110;28;20215;-69
2022/07/04 01:48:06;;;;;;;2.23;2.03;;;17.00;99.90;;;;;;5004949;28;20707;-69
2022/07/04 01:50:33;;;;;;;2.87;2.00;;;17.00;99.90;;;;;;5007012;28;20243;-69
2022/07/04 01:53:00;;;;;;;7.03;2.00;;;17.00;99.90;;;;;;5010232;28;20246;-69
2022/07/04 01:55:28;;;;;;;1.87;1.70;;;17.00;99.90;;;;;;5010067;28;20219;-70
2022/07/04 01:57:55;;;;;;;2.40;1.97;;;17.00;99.90;;;;;;5005979;28;20200;-70
2022/07/04 02:03:08;;;;;;;3.17;2.17;;;16.70;99.90;;;;;;5010629;28;20196;-67
2022/07/04 02:05:37;;;;;;;3.73;1.90;;;16.70;99.90;;;;;;5008553;28;20223;-67
2022/07/04 02:08:08;;;;;;;6.60;2.20;;;16.70;99.90;;;;;;5002218;28;20224;-67
2022/07/04 02:10:35;;;;;;;4.33;2.00;;;16.60;99.90;;;;;;5010114;28;20655;-67
2022/07/04 02:13:03;;;;;;;2.53;2.10;;;16.60;99.90;;;;;;5009900;28;20192;-70
2022/07/04 02:15:32;;;;;;;7.83;2.40;;;16.50;99.90;;;;;;5005578;28;20208;-69
2022/07/04 02:18:00;;;;;;;2.30;1.90;;;16.40;99.90;;;;;;5009833;28;20196;-70
2022/07/04 02:20:27;;;;;;;3.10;2.20;;;16.40;99.90;;;;;;5016940;28;20805;-70
2022/07/04 02:22:54;;;;;;;3.90;2.10;;;16.30;99.90;;;;;;5008867;28;20484;-69
2022/07/04 02:25:21;;;;;;;3.17;2.57;;;16.20;99.90;;;;;;5003839;28;20231;-70
2022/07/04 02:27:48;;;;;;;2.23;2.00;;;16.40;99.90;;;;;;5009880;28;20230;-69
2022/07/04 02:30:14;;;;;;;2.90;2.33;;;16.40;99.90;;;;;;5009900;28;20197;-69
2022/07/04 02:32:41;;;;;;;2.40;2.20;;;16.40;99.90;;;;;;5003305;28;20195;-69
2022/07/04 02:35:09;;;;;;;3.73;2.40;;;16.50;99.90;;;;;;5009232;28;20211;-70
2022/07/04 02:37:36;;;;;;;4.20;2.40;;;16.40;99.90;;;;;;5009491;28;20204;-71
2022/07/04 02:40:04;;;;;;;3.23;2.60;;;16.40;99.90;;;;;;5009353;28;20215;-69
2022/07/04 02:42:32;;;;;;;3.83;2.30;;;16.50;99.90;;;;;;5005640;28;20189;-69
2022/07/04 02:44:59;;;;;;;3.10;2.20;;;16.40;99.90;;;;;;5009356;28;20542;-69
2022/07/04 02:47:26;;;;;;;3.90;2.43;;;16.40;99.90;;;;;;5003826;28;20189;-69
2022/07/04 02:49:54;;;;;;;2.63;2.37;;;16.30;99.90;;;;;;5004792;28;20370;-69
2022/07/04 02:52:21;;;;;;;3.40;2.33;;;16.40;99.90;;;;;;5009772;28;20200;-69
2022/07/04 02:54:48;;;;;;;3.27;2.40;;;16.40;99.90;;;;;;5010340;28;20214;-69
2022/07/04 02:57:15;;;;;;;3.77;2.33;;;16.70;99.90;;;;;;5009764;28;20315;-69
2022/07/04 02:59:42;;;;;;;2.97;2.43;;;16.80;99.90;;;;;;5007096;28;20207;-69
2022/07/04 03:02:09;;;;;;;4.03;2.30;;;16.80;99.90;;;;;;5009668;28;20576;-69
2022/07/04 03:04:35;;;;;;;3.87;2.37;;;16.80;99.90;;;;;;5007589;28;20192;-70
2022/07/04 03:07:02;;;;;;;2.77;2.27;;;16.80;99.90;;;;;;5009098;28;20584;-70
2022/07/04 03:09:29;;;;;;;2.80;2.27;;;16.80;99.90;;;;;;5008459;28;20315;-70
2022/07/04 03:11:56;;;;;;;5.33;2.53;;;16.70;99.90;;;;;;5009283;28;20663;-69
2022/07/04 03:14:22;;;;;;;5.47;2.37;;;16.70;99.90;;;;;;5008921;28;20192;-69
2022/07/04 03:16:49;;;;;;;3.17;2.10;;;16.70;99.90;;;;;;5008086;28;20212;-70
2022/07/04 03:19:17;;;;;;;3.43;2.40;;;16.60;99.90;;;;;;5008718;28;20193;-69
2022/07/04 03:21:44;;;;;;;5.60;2.47;;;16.60;99.90;;;;;;5009058;28;20192;-69
2022/07/04 03:24:13;;;;;;;4.43;2.30;;;16.70;99.90;;;;;;5009400;28;20223;-70
2022/07/04 03:26:39;;;;;;;3.20;2.30;;;16.60;99.90;;;;;;5007277;28;20224;-70
2022/07/04 03:29:06;;;;;;;5.13;2.50;;;16.60;99.90;;;;;;5001798;28;20227;-69
2022/07/04 03:31:33;;;;;;;5.87;2.40;;;16.70;99.90;;;;;;5009206;28;20196;-70
2022/07/04 03:33:59;;;;;;;2.73;2.33;;;16.80;99.90;;;;;;5006522;28;20193;-70
2022/07/04 03:36:26;;;;;;;2.60;2.20;;;16.70;99.90;;;;;;5005500;28;20235;-70
2022/07/04 03:38:53;;;;;;;5.43;2.40;;;16.80;99.90;;;;;;5008957;28;20203;-69
2022/07/04 03:41:19;;;;;;;5.07;2.63;;;16.90;99.90;;;;;;5008919;28;20221;-69
2022/07/04 03:43:46;;;;;;;3.60;2.70;;;16.80;99.90;;;;;;5008960;28;20192;-70
2022/07/04 03:46:13;;;;;;;2.83;2.30;;;16.90;99.90;;;;;;5008140;28;20215;-70
2022/07/04 03:48:42;;;;;;;3.57;2.60;;;16.90;99.90;;;;;;5011325;28;20318;-69
2022/07/04 03:51:13;;;;;;;5.00;2.40;;;17.00;99.90;;;;;;5002111;28;20203;-69
2022/07/04 03:53:41;;;;;;;3.50;2.20;;;17.00;99.90;;;;;;5008258;28;20283;-70
2022/07/04 03:56:08;;;;;;;2.70;2.17;;;17.10;99.90;;;;;;5008305;28;20212;-70
2022/07/04 03:58:35;;;;;;;4.33;2.53;;;17.10;99.90;;;;;;5009178;28;20200;-69
2022/07/04 04:01:02;;;;;;;4.03;2.43;;;17.00;99.90;;;;;;5008554;28;20199;-69
2022/07/04 04:06:32;;;;;;;3.40;2.50;;;17.00;99.90;;;;;;5008522;28;20220;-69
2022/07/04 04:08:59;;;;;;;3.90;2.20;;;17.10;99.90;;;;;;5008560;28;20212;-69
2022/07/04 04:11:25;;;;;;;4.57;2.30;;;17.20;99.90;;;;;;5007302;28;20390;-70
2022/07/04 04:13:52;;;;;;;4.87;2.73;;;17.10;99.90;;;;;;5007321;28;20197;-69
2022/07/04 04:16:19;;;;;;;2.80;2.50;;;17.10;99.90;;;;;;5008459;28;20239;-69
2022/07/04 04:18:45;;;;;;;4.13;2.47;;;17.20;99.90;;;;;;5008482;28;20210;-69
2022/07/04 04:21:12;;;;;;;3.50;2.30;;;17.20;99.90;;;;;;5007293;28;20201;-69
2022/07/04 04:23:39;;;;;;;4.43;2.20;;;17.20;99.90;;;;;;5008763;28;20208;-69
2022/07/04 04:26:05;;;;;;;2.70;2.33;;;17.20;99.90;;;;;;5008979;28;20223;-69
2022/07/04 04:28:32;;;;;;;2.87;2.30;;;17.20;99.90;;;;;;5010531;28;20220;-70
2022/07/04 04:30:59;;;;;;;2.93;2.27;;;17.20;99.90;;;;;;5011682;28;20196;-69
2022/07/04 04:33:26;;;;;;;5.27;2.33;;;17.20;99.90;;;;;;5012131;28;20196;-69
2022/07/04 04:35:52;;;;;;;3.93;2.60;;;17.20;99.90;;;;;;5014083;28;20224;-66
2022/07/04 04:38:24;;;;;;;4.90;2.37;;;17.10;99.90;;;;;;5014444;28;20192;-68
2022/07/04 04:40:53;;;;;;;2.37;1.97;;;17.30;99.90;;;;;;5001593;28;20200;-67
2022/07/04 04:43:20;;;;;;;3.20;2.30;;;17.30;99.90;;;;;;5012159;28;20215;-67
2022/07/04 04:45:46;;;;;;;5.27;2.30;;;17.30;99.90;;;;;;5009746;28;20488;-67
2022/07/04 04:48:14;;;;;;;2.97;2.20;;;17.40;99.90;;;;;;5011633;28;20650;-67
2022/07/04 04:50:41;;;;;;;5.57;2.10;;;17.40;99.90;;;;;;5011291;28;20608;-67
2022/07/04 04:53:07;;;;;;;5.70;2.10;;;17.50;99.90;;;;;;5009175;28;20192;-67
2022/07/04 04:55:34;;;;;;;4.40;2.27;;;17.40;99.90;;;;;;5011026;28;20652;-67
2022/07/04 04:58:01;;;;;;;2.40;2.00;;;17.50;99.90;;;;;;5011350;28;20568;-67
2022/07/04 05:00:27;;;;;;;2.60;2.10;;;17.70;99.90;;;;;;5011327;28;20196;-67
2022/07/04 05:02:54;;;;;;;3.40;2.27;;;17.80;99.90;;;;;;5007773;28;20552;-67
2022/07/04 05:05:21;;;;;;;2.90;2.00;;;17.80;99.90;;;;;;5011109;28;20216;-67
2022/07/04 05:07:47;;;;;;;4.77;2.20;;;17.80;99.90;;;;;;5009536;28;20220;-67
2022/07/04 05:10:15;;;;;;;4.10;2.13;;;17.90;99.90;;;;;;5009845;28;20227;-67
2022/07/04 05:12:43;;;;;;;3.90;2.30;;;17.90;99.90;;;;;;5010438;28;20224;-67
2022/07/04 05:15:10;;;;;;;4.50;2.30;;;18.00;99.90;;;;;;5008733;28;20253;-69
2022/07/04 05:17:37;;;;;;;3.63;2.23;;;18.10;99.90;;;;;;5010793;28;20197;-69
2022/07/04 05:20:04;;;;;;;4.87;1.90;;;18.10;99.90;;;;;;5009552;28;20203;-70
2022/07/04 05:22:30;;;;;;;3.57;2.30;;;18.20;99.90;;;;;;5009779;28;20564;-71
2022/07/04 05:24:57;;;;;;;2.40;2.00;;;18.20;99.90;;;;;;5009432;28;20200;-69
2022/07/04 05:27:25;;;;;;;2.93;2.00;;;18.30;99.90;;;;;;5004760;28;20212;-71
2022/07/04 05:29:53;;;;;;;3.27;1.90;;;18.40;99.90;;;;;;5007333;28;20231;-70
2022/07/04 05:32:20;;;;;;;3.03;1.90;;;18.50;99.90;;;;;;5010816;28;20188;-70
2022/07/04 05:34:47;;;;;;;2.90;1.83;;;18.80;99.90;;;;;;5010076;28;20272;-71
2022/07/04 05:37:14;;;;;;;3.60;1.90;;;19.10;99.90;;;;;;5007474;28;20355;-70
2022/07/04 05:39:41;;;;;;;2.87;1.80;;;19.20;99.90;;;;;;5007949;28;20200;-69
2022/07/04 05:42:08;;;;;;;2.97;1.73;;;19.10;99.90;;;;;;5010407;28;20192;-70
2022/07/04 05:44:34;;;;;;;3.57;2.03;;;19.00;99.90;;;;;;5010172;28;20568;-71
2022/07/04 05:47:01;;;;;;;2.40;1.57;;;18.90;99.90;;;;;;5007387;28;20223;-69
2022/07/04 05:49:28;;;;;;;2.97;1.70;;;19.00;99.90;;;;;;5008456;28;20226;-69
2022/07/04 05:51:55;;;;;;;3.33;1.63;;;19.00;99.90;;;;;;5010278;28;20196;-70
2022/07/04 05:54:21;;;;;;;1.90;1.67;;;19.00;99.90;;;;;;5009337;28;20206;-69
2022/07/04 05:56:48;;;;;;;2.10;1.70;;;19.20;99.90;;;;;;5010072;28;20216;-71
2022/07/04 05:59:15;;;;;;;4.67;1.60;;;19.30;99.90;;;;;;5010470;28;20204;-70
2022/07/04 06:01:42;;;;;;;3.47;1.70;;;19.40;99.90;;;;;;5010065;28;20287;-69
2022/07/04 06:04:09;;;;;;;3.37;1.57;;;19.50;99.90;;;;;;5008298;28;20582;-70
2022/07/04 06:06:35;;;;;;;2.80;1.90;;;19.70;99.90;;;;;;5008520;28;20219;-71
2022/07/04 06:09:03;;;;;;;3.07;1.57;;;19.80;99.90;;;;;;5010217;28;20212;-69
2022/07/04 06:11:30;;;;;;;1.77;1.40;;;19.80;99.90;;;;;;5009160;28;20196;-69
2022/07/04 06:13:56;;;;;;;1.93;1.40;;;19.90;99.90;;;;;;5004046;28;20192;-69
2022/07/04 06:16:23;;;;;;;2.23;1.73;;;19.90;99.90;;;;;;5008184;28;20222;-70
2022/07/04 06:18:50;;;;;;;7.17;1.40;;;19.90;99.90;;;;;;5009744;28;20211;-70
2022/07/04 06:21:16;;;;;;;2.53;1.37;;;19.80;99.90;;;;;;5004260;28;20203;-69
2022/07/04 06:23:43;;;;;;;2.83;1.33;;;19.80;99.90;;;;;;5008865;28;20200;-69
2022/07/04 06:26:10;;;;;;;2.97;1.30;;;20.10;99.90;;;;;;5009380;28;20212;-69
2022/07/04 06:28:37;;;;;;;2.90;1.17;;;20.40;99.90;;;;;;5008388;28;20231;-69
2022/07/04 06:31:13;;;;;;;3.33;1.37;;;20.40;99.90;;;;;;5008590;28;20196;-69
2022/07/04 06:36:26;;;;;;;1.60;1.17;;;20.40;99.90;;;;;;5004584;28;20220;-71
2022/07/04 06:38:53;;;;;;;1.63;1.10;;;20.40;99.90;;;;;;5008853;28;20203;-67
2022/07/04 06:41:19;;;;;;;2.73;1.00;;;20.40;99.90;;;;;;5004331;28;20196;-68
2022/07/04 06:43:46;;;;;;;1.60;1.10;;;20.40;99.90;;;;;;5009037;28;20200;-67
2022/07/04 06:46:13;;;;;;;1.87;1.00;;;20.40;99.90;;;;;;5008886;28;20721;-67
2022/07/04 06:48:39;;;;;;;2.73;0.90;;;20.50;99.90;;;;;;5003575;28;20205;-67
2022/07/04 06:51:06;;;;;;;2.87;1.30;;;20.60;99.90;;;;;;5009467;28;20222;-67
2022/07/04 06:53:33;;;;;;;2.67;1.00;;;20.60;99.90;;;;;;5009469;28;20207;-67
2022/07/04 06:56:00;;;;;;;3.33;1.20;;;20.60;99.90;;;;;;5002038;28;20223;-67
2022/07/04 06:58:26;;;;;;;1.83;1.07;;;20.60;99.90;;;;;;5009051;28;20192;-68
2022/07/04 07:00:53;;;;;;;1.33;1.13;;;20.80;99.90;;;;;;5009022;28;20570;-67
2022/07/04 07:03:20;;;;;;;2.63;0.90;;;20.90;99.90;;;;;;5006018;28;20620;-68
2022/07/04 07:05:47;;;;;;;2.83;1.20;;;21.10;99.90;;;;;;5007121;28;20247;-67
2022/07/04 07:08:30;;;;;;;0.95;0.95;;;21.10;99.90;;;;;;5005117;28;20257;-67
2022/07/04 07:10:58;;;;;;;2.83;1.13;;;21.40;99.90;;;;;;5007893;28;20219;-67
2022/07/04 07:13:24;;;;;;;2.75;1.00;;;21.90;99.90;;;;;;5008412;28;20192;-67
2022/07/04 07:15:51;;;;;;;1.95;0.80;;;22.90;99.90;;;;;;5008724;28;20216;-68
2022/07/04 07:18:18;;;;;;;1.23;0.88;;;23.50;99.90;;;;;;5005734;28;20197;-67
2022/07/04 07:20:44;;;;;;;1.67;0.80;;;24.40;99.90;;;;;;5006636;28;20204;-67
2022/07/04 07:23:11;;;;;;;0.98;0.80;;;25.10;99.90;;;;;;5000903;28;20198;-67
2022/07/04 07:25:38;;;;;;;1.48;0.80;;;25.40;99.90;;;;;;5007405;28;20224;-67
2022/07/04 07:28:04;;;;;;;1.20;0.90;;;25.70;99.90;;;;;;5008955;28;20674;-70
2022/07/04 07:30:31;;;;;;;1.75;0.90;;;26.10;99.90;;;;;;5009074;28;20484;-69
2022/07/04 07:32:58;;;;;;;1.95;0.95;;;26.10;99.90;;;;;;5003464;28;20196;-69
2022/07/04 07:35:24;;;;;;;2.42;0.80;;;26.40;99.90;;;;;;5008641;28;20215;-71
2022/07/04 07:37:51;;;;;;;1.63;0.80;;;26.70;99.90;;;;;;5008543;28;20557;-69
2022/07/04 07:40:18;;;;;;;1.08;0.90;;;26.40;99.90;;;;;;5007892;28;20196;-69
2022/07/04 07:42:44;;;;;;;5.32;0.90;;;26.80;99.90;;;;;;5005888;28;20207;-70
2022/07/04 07:45:11;;;;;;;1.27;0.73;;;26.70;99.90;;;;;;5008257;28;20196;-70
2022/07/04 07:47:38;;;;;;;2.25;0.95;;;26.50;99.90;;;;;;5008757;28;20196;-69
2022/07/04 07:50:06;;;;;;;2.17;1.00;;;26.40;99.90;;;;;;5004685;28;20220;-69
2022/07/04 07:52:33;;;;;;;1.67;0.90;;;26.20;99.90;;;;;;5008691;28;20200;-69
2022/07/04 07:54:59;;;;;;;1.52;0.75;;;25.70;99.90;;;;;;5008446;28;20192;-69
2022/07/04 07:57:28;;;;;;;3.92;1.08;;;25.70;99.90;;;;;;5008124;28;20196;-69
2022/07/04 07:59:55;;;;;;;1.98;0.80;;;25.90;99.90;;;;;;5010272;28;20203;-69
2022/07/04 08:04:34;;;;;;;2.60;0.82;;;26.00;99.90;;;;;;5011942;28;20207;-70
2022/07/04 08:05:10;;;;;;;1.15;0.90;;;26.10;99.90;;;;;;5010217;28;20196;-70
2022/07/04 08:07:38;;;;;;;2.15;0.80;;;25.90;99.90;;;;;;5010626;28;20203;-69
2022/07/04 08:10:05;;;;;;;1.38;0.85;;;26.00;99.90;;;;;;5012155;28;20455;-70
2022/07/04 08:12:32;;;;;;;2.60;0.80;;;26.00;99.90;;;;;;5012137;28;20667;-69
2022/07/04 08:14:58;;;;;;;1.88;0.98;;;25.60;99.90;;;;;;5009473;28;20715;-70
2022/07/04 08:17:33;;;;;;;2.40;0.73;;;25.30;99.90;;;;;;5011966;28;20716;-69
2022/07/04 08:19:59;;;;;;;3.55;0.90;;;24.80;99.90;;;;;;5012130;28;20207;-70
2022/07/04 08:22:26;;;;;;;1.60;0.93;;;24.60;99.90;;;;;;5011085;28;20204;-67
2022/07/04 08:24:53;;;;;;;1.40;0.80;;;24.60;99.90;;;;;;5008379;28;20599;-67
2022/07/04 08:27:22;;;;;;;2.10;0.80;;;24.40;99.90;;;;;;5011762;28;20216;-67
2022/07/04 08:29:57;;;;;;;1.92;0.80;;;24.00;99.90;;;;;;5008649;28;20219;-67
2022/07/04 08:32:24;;;;;;;2.90;1.05;;;24.20;99.90;;;;;;5005932;28;20192;-67
2022/07/04 08:34:51;;;;;;;2.65;1.08;;;24.10;99.90;;;;;;5007405;28;20227;-67
2022/07/04 08:37:17;;;;;;;2.75;0.95;;;24.10;99.90;;;;;;5011751;28;20246;-67
2022/07/04 08:39:44;;;;;;;2.97;1.00;;;24.30;99.90;;;;;;5011761;28;20196;-67
2022/07/04 08:42:20;;;;;;;4.72;1.20;;;24.20;99.90;;;;;;5008099;28;20258;-67
2022/07/04 08:44:55;;;;;;;3.33;0.90;;;24.20;99.90;;;;;;5011119;28;20200;-66
2022/07/04 08:47:23;;;;;;;3.55;0.98;;;24.30;99.90;;;;;;5011852;28;20219;-67
2022/07/04 08:50:13;;;;;;;1.75;0.98;;;24.60;99.90;;;;;;5013566;28;20246;-67
2022/07/04 08:52:42;;;;;;;1.63;0.73;;;24.80;99.90;;;;;;5008844;28;20207;-67
2022/07/04 09:00:43;;;;;;;3.45;1.00;;;24.40;99.90;;;;;;5009357;28;20207;-67
2022/07/04 09:03:10;;;;;;;1.10;0.80;;;24.60;99.90;;;;;;5011130;28;20208;-67
2022/07/04 09:05:37;;;;;;;1.42;1.00;;;24.50;99.90;;;;;;5010859;28;20216;-67
2022/07/04 09:08:04;;;;;;;4.13;0.88;;;24.80;99.90;;;;;;5009367;28;20239;-67
2022/07/04 09:10:31;;;;;;;1.50;0.68;;;25.00;99.90;;;;;;5010830;28;20710;-67
2022/07/04 09:13:00;;;;;;;1.42;0.90;;;25.20;99.90;;;;;;5010796;28;20200;-67
2022/07/04 09:15:39;;;;;;;1.73;0.90;;;25.30;99.90;;;;;;5007188;28;20295;-67
2022/07/04 09:18:05;;;;;;;1.92;0.90;;;25.30;99.90;;;;;;5008556;28;20215;-67
2022/07/04 09:20:33;;;;;;;1.52;0.95;;;25.60;99.90;;;;;;5011280;28;20207;-67
2022/07/04 09:23:00;;;;;;;2.90;0.90;;;25.70;99.90;;;;;;5013648;28;20215;-67
2022/07/04 09:25:27;;;;;;;2.90;1.05;;;25.80;99.90;;;;;;5003717;28;20220;-67
2022/07/04 09:27:56;;;;;;;0.90;0.80;;;25.80;99.90;;;;;;5011349;28;20199;-67
2022/07/04 09:30:25;;;;;;;1.75;0.70;;;25.80;99.90;;;;;;5010298;28;20246;-67
2022/07/04 09:32:59;;;;;;;1.45;0.90;;;25.90;99.90;;;;;;5009322;28;20202;-67
2022/07/04 09:35:29;;;;;;;0.93;0.80;;;25.60;99.90;;;;;;5010310;28;20216;-67
2022/07/04 09:37:59;;;;;;;2.75;0.95;;;25.70;99.90;;;;;;5010563;28;20796;-67
2022/07/04 09:43:24;;;;;;;2.10;0.80;;;26.00;99.90;;;;;;5009336;28;20207;-67
2022/07/04 09:46:01;;;;;;;3.53;0.95;;;26.10;99.90;;;;;;5010423;28;20224;-67
2022/07/04 09:48:49;;;;;;;1.77;0.90;;;26.10;99.90;;;;;;5010778;28;20694;-67
2022/07/04 09:51:34;;;;;;;1.55;0.80;;;26.00;99.90;;;;;;5007976;28;20224;-67
2022/07/04 09:54:22;;;;;;;1.02;0.70;;;26.10;99.90;;;;;;5006890;28;20464;-67
2022/07/04 09:56:51;;;;;;;1.35;0.75;;;26.40;99.90;;;;;;5008101;28;20215;-67
2022/07/04 09:59:19;;;;;;;2.25;0.75;;;26.60;99.90;;;;;;5008673;28;20196;-67
2022/07/04 10:01:46;;;;;;;0.80;0.80;;;26.50;99.90;;;;;;5010420;28;20629;-67
2022/07/04 10:04:13;;;;;;;1.48;0.95;;;26.60;99.90;;;;;;5010359;28;20215;-67
2022/07/04 10:06:42;;;;;;;1.10;0.70;;;26.70;99.90;;;;;;5004342;28;20271;-67
2022/07/04 10:09:10;;;;;;;0.73;0.73;;;26.70;99.90;;;;;;5004508;28;20203;-67
2022/07/04 10:11:39;;;;;;;1.15;0.80;;;26.60;99.90;;;;;;5002441;28;20221;-66
2022/07/04 10:14:08;;;;;;;1.60;0.73;;;26.20;99.90;;;;;;5008654;28;20192;-67
2022/07/04 10:16:36;;;;;;;6.53;0.93;;;26.30;99.90;;;;;;5005969;28;20212;-67
2022/07/04 10:19:04;;;;;;;1.23;0.70;;;26.40;99.90;;;;;;5006712;28;20214;-67
2022/07/04 10:21:31;;;;;;;2.25;0.60;;;26.50;99.90;;;;;;5010027;28;20196;-67
2022/07/04 10:23:58;;;;;;;2.58;0.77;;;26.70;99.60;;;;;;5008885;28;20200;-67
2022/07/04 10:26:27;;;;;;;4.00;0.90;;;26.80;99.90;;;;;;5005899;28;20223;-67
2022/07/04 10:28:54;;;;;;;0.95;0.70;;;26.60;99.10;;;;;;5010685;28;20551;-67
2022/07/04 10:31:24;;;;;;;7.90;1.63;;;26.70;99.10;;;;;;5008648;28;20219;-67
2022/07/04 10:33:52;;;;;;;5.65;1.10;;;26.80;99.40;;;;;;5006758;28;20204;-67
2022/07/04 10:36:21;;;;;;;1.17;0.70;;;26.90;99.70;;;;;;5009076;28;20590;-67
2022/07/04 10:38:53;;;;;;;0.85;0.75;;;27.10;99.30;;;;;;5009680;28;20207;-67
2022/07/04 10:41:22;;;;;;;2.30;0.68;;;26.80;99.50;;;;;;5008524;28;20203;-67
2022/07/04 10:44:07;;;;;;;1.33;0.70;;;26.90;98.60;;;;;;5009651;28;20240;-67
2022/07/04 10:46:51;;;;;;;0.75;0.75;;;26.80;98.90;;;;;;5006229;28;20769;-67
2022/07/04 10:49:21;;;;;;;3.35;1.90;;;26.60;98.40;;;;;;5007690;28;20282;-67
2022/07/04 10:51:52;;;;;;;3.72;1.08;;;26.40;99.50;;;;;;5003324;28;20228;-67
2022/07/04 10:54:31;;;;;;;2.33;0.85;;;26.50;98.70;;;;;;5009208;28;20196;-67
2022/07/04 10:57:10;;;;;;;2.15;1.13;;;26.40;98.00;;;;;;5008117;28;20239;-67
2022/07/04 10:59:38;;;;;;;1.60;0.90;;;26.50;98.70;;;;;;5007112;28;20193;-67
2022/07/04 11:02:09;;;;;;;1.05;0.80;;;26.50;98.30;;;;;;5008793;28;20571;-67
2022/07/04 11:04:58;;;;;;;1.27;0.60;;;26.40;98.20;;;;;;5003985;28;20201;-67
2022/07/04 11:07:36;;;;;;;1.02;0.70;;;26.60;98.10;;;;;;5009177;28;20303;-67
2022/07/04 11:10:12;;;;;;;2.10;0.70;;;26.90;97.30;;;;;;5005155;28;20200;-67
2022/07/04 11:12:57;;;;;;;1.00;0.52;;;27.30;97.20;;;;;;5006131;28;20202;-67
2022/07/04 11:15:27;;;;;;;1.50;0.70;;;27.50;97.80;;;;;;5020060;23;20231;-73
2022/07/04 11:17:57;;;;;;;1.05;0.60;;;27.60;96.00;;;;;;5009848;28;20661;-72
2022/07/04 11:20:26;;;;;;;0.75;0.70;;;27.50;96.20;;;;;;5009781;28;20499;-73
2022/07/04 11:23:03;;;;;;;2.05;0.80;;;27.60;96.30;;;;;;5009918;28;20204;-73
2022/07/04 11:25:30;;;;;;;1.60;0.60;;;27.80;96.20;;;;;;5009042;28;20216;-72
2022/07/04 11:27:56;;;;;;;1.10;0.60;;;28.00;94.60;;;;;;5011639;28;20656;-73
2022/07/04 11:30:23;;;;;;;6.22;0.70;;;28.00;95.40;;;;;;5011316;28;20216;-73
2022/07/04 11:32:50;;;;;;;1.48;0.98;;;28.00;94.70;;;;;;5009776;28;20284;-74
2022/07/04 11:35:20;;;;;;;2.42;1.15;;;28.20;95.30;;;;;;5010819;28;20219;-73
2022/07/04 11:37:57;;;;;;;0.88;0.80;;;28.40;95.90;;;;;;5013711;28;20214;-73
2022/07/04 11:45:54;;;;;;;1.85;0.73;;;28.40;96.70;;;;;;5013688;28;20254;-73
2022/07/04 11:48:26;;;;;;;1.48;0.73;;;27.90;96.40;;;;;;5013492;28;20207;-73
2022/07/04 11:50:53;;;;;;;2.20;0.77;;;27.80;96.80;;;;;;5013483;28;20220;-73
2022/07/04 11:53:20;;;;;;;1.25;0.77;;;27.90;96.10;;;;;;5013612;28;20231;-72
2022/07/04 11:55:55;;;;;;;1.10;0.77;;;27.80;96.00;;;;;;5013015;28;20219;-74
2022/07/04 11:58:37;;;;;;;1.30;0.73;;;27.70;95.40;;;;;;5013136;28;20250;-72
2022/07/04 12:01:04;;;;;;;1.38;0.70;;;27.80;95.70;;;;;;5017597;28;20203;-73
2022/07/04 12:03:33;;;;;;;2.05;0.70;;;28.00;95.90;;;;;;5013180;28;20269;-73
2022/07/04 12:06:01;;;;;;;2.35;1.00;;;28.10;95.90;;;;;;5017903;28;20691;-73
2022/07/04 12:08:28;;;;;;;1.27;0.73;;;28.20;96.10;;;;;;5016725;28;20196;-73
2022/07/04 12:10:55;;;;;;;0.80;0.80;;;28.00;96.00;;;;;;5013366;28;20224;-73
2022/07/04 12:13:22;;;;;;;0.77;0.75;;;27.70;96.10;;;;;;5013061;28;20200;-73
2022/07/04 12:15:52;;;;;;;0.82;0.60;;;27.50;95.70;;;;;;5017404;28;20224;-72
2022/07/04 12:18:20;;;;;;;1.73;0.90;;;27.30;96.30;;;;;;5020425;28;20567;-72
2022/07/04 12:20:48;;;;;;;0.75;0.60;;;27.40;95.70;;;;;;5013153;28;20201;-73
2022/07/04 12:23:15;;;;;;;1.63;0.75;;;27.20;95.00;;;;;;5012998;28;20208;-72
2022/07/04 12:25:45;;;;;;;1.10;0.70;;;27.10;95.00;;;;;;5013185;28;20212;-73
2022/07/04 12:28:17;;;;;;;0.70;0.63;;;27.20;95.30;;;;;;5012881;28;20262;-71
2022/07/04 12:30:57;;;;;;;0.90;0.73;;;27.10;94.70;;;;;;5013542;28;20212;-72
2022/07/04 12:33:29;;;;;;;0.90;0.80;;;26.90;95.00;;;;;;5014462;28;20206;-74
2022/07/04 12:36:03;;;;;;;0.70;0.70;;;27.10;95.30;;;;;;5015857;28;20607;-73
2022/07/04 12:38:30;;;;;;;1.30;0.90;;;27.30;95.30;;;;;;5013759;28;20200;-73
2022/07/04 12:41:00;;;;;;;1.15;0.68;;;27.50;94.60;;;;;;5013189;28;20211;-71
2022/07/04 12:43:54;;;;;;;1.58;0.60;;;27.60;94.50;;;;;;5012767;28;20330;-74
2022/07/04 12:46:34;;;;;;;2.20;0.82;;;27.70;95.60;;;;;;5011767;28;20212;-71
2022/07/04 12:49:21;;;;;;;0.65;0.65;;;27.70;95.00;;;;;;5012686;28;20204;-73
2022/07/04 12:51:47;;;;;;;1.73;0.63;;;27.70;94.40;;;;;;5016915;28;20220;-73
2022/07/04 12:54:15;;;;;;;0.60;0.57;;;27.80;94.20;;;;;;5012699;28;20196;-71
2022/07/04 12:56:46;;;;;;;0.90;0.50;;;27.90;94.30;;;;;;5012227;28;20291;-73
2022/07/04 12:59:16;;;;;;;1.42;0.70;;;28.00;94.20;;;;;;5012312;28;20192;-73
2022/07/04 13:01:44;;;;;;;0.75;0.60;;;27.80;93.40;;;;;;5013727;28;20203;-74
2022/07/04 13:04:12;;;;;;;2.97;0.68;;;27.30;93.30;;;;;;5015854;28;20211;-73
2022/07/04 13:06:39;;;;;;;0.70;0.70;;;27.40;93.10;;;;;;5011912;28;20216;-73
2022/07/04 13:09:09;;;;;;;2.13;0.68;;;27.30;92.90;;;;;;5013004;28;20210;-73
2022/07/04 13:14:22;;;;;;;1.35;0.68;;;27.50;93.70;;;;;;5012170;28;20196;-73
2022/07/04 13:16:49;;;;;;;1.40;0.50;;;27.60;93.80;;;;;;5017570;28;20223;-73
2022/07/04 13:19:17;;;;;;;1.00;0.60;;;27.70;93.90;;;;;;5017882;28;20207;-72